Main page
METAR-TAF:

METAR-TAF

Airports :

Beatrice Municipal Airport

Beatrice, Nebraska, United States

latitude: 40-18N, longitude: 096-45W, elevation: 1322 ft

Current weather observation

The report was made 1 hour and 0 minutes ago, at 22:59 UTC
Wind 20 mph from the South/Southwest with gusts up to 32 mph
Temperature 66°F
Humidity 34%
Pressure 30.09 in. Hg
Visibility: 10 miles
Clear sky

METAR: KBIE 072259Z AUTO 20017G28KT 10SM CLR 19/03 A3009 RMK AO2

Time: 17:59 (23:59 UTC)


TAF: missing

Weather observations and forecasts of more than 4000 airports (METAR and TAF reports).

The available stations are represented by yellow and red dots on the map.

Hover mouse over dot to see the name of the station.

Then click to see weather observations and forecasts.

To change the map : click on the green buttons with a black cross to zoom in, on the green button with a dash to zoom out, or on the green arrows for adjacent maps.


METAR-TAF: